sensor_id;sensor_type;location;lat;lon;timestamp;pressure;altitude;pressure_sealevel;temperature;humidity
72061;BME280;59925;52.136;5.420;2023-04-26T00:01:26;102125.47;;;3.72;79.12
72061;BME280;59925;52.136;5.420;2023-04-26T00:03:53;102120.94;;;3.65;78.44
72061;BME280;59925;52.136;5.420;2023-04-26T00:06:21;102126.81;;;3.61;79.21
72061;BME280;59925;52.136;5.420;2023-04-26T00:08:48;102122.06;;;3.56;79.27
72061;BME280;59925;52.136;5.420;2023-04-26T00:11:15;102131.81;;;3.49;79.31
72061;BME280;59925;52.136;5.420;2023-04-26T00:13:41;102129.66;;;3.37;79.25
72061;BME280;59925;52.136;5.420;2023-04-26T00:16:07;102123.47;;;3.30;79.85
72061;BME280;59925;52.136;5.420;2023-04-26T00:18:34;102128.97;;;3.29;79.62
72061;BME280;59925;52.136;5.420;2023-04-26T00:21:00;102127.97;;;3.30;79.17
72061;BME280;59925;52.136;5.420;2023-04-26T00:23:27;102127.34;;;3.28;79.60
72061;BME280;59925;52.136;5.420;2023-04-26T00:25:53;102130.53;;;3.23;80.08
72061;BME280;59925;52.136;5.420;2023-04-26T00:28:20;102117.03;;;3.18;79.60
72061;BME280;59925;52.136;5.420;2023-04-26T00:30:46;102121.53;;;3.17;79.15
72061;BME280;59925;52.136;5.420;2023-04-26T00:33:14;102114.38;;;3.18;79.52
72061;BME280;59925;52.136;5.420;2023-04-26T00:35:40;102119.03;;;3.16;79.36
72061;BME280;59925;52.136;5.420;2023-04-26T00:38:06;102115.75;;;3.14;79.12
72061;BME280;59925;52.136;5.420;2023-04-26T00:40:33;102117.31;;;3.08;79.33
72061;BME280;59925;52.136;5.420;2023-04-26T00:43:02;102121.09;;;2.99;79.79
72061;BME280;59925;52.136;5.420;2023-04-26T00:45:29;102110.81;;;2.89;79.45
72061;BME280;59925;52.136;5.420;2023-04-26T00:47:57;102119.69;;;2.81;79.45
72061;BME280;59925;52.136;5.420;2023-04-26T00:50:26;102118.44;;;2.77;80.01
72061;BME280;59925;52.136;5.420;2023-04-26T00:52:54;102104.53;;;2.75;79.78
72061;BME280;59925;52.136;5.420;2023-04-26T00:55:21;102112.66;;;2.73;79.75
72061;BME280;59925;52.136;5.420;2023-04-26T00:57:48;102114.22;;;2.68;79.73
72061;BME280;59925;52.136;5.420;2023-04-26T01:00:14;102114.13;;;2.61;80.11
72061;BME280;59925;52.136;5.420;2023-04-26T01:02:41;102111.59;;;2.53;80.19
72061;BME280;59925;52.136;5.420;2023-04-26T01:05:08;102120.91;;;2.49;80.97
72061;BME280;59925;52.136;5.420;2023-04-26T01:07:36;102116.72;;;2.39;80.61
72061;BME280;59925;52.136;5.420;2023-04-26T01:10:03;102109.22;;;2.28;81.02
72061;BME280;59925;52.136;5.420;2023-04-26T01:12:35;102121.09;;;2.17;81.03
72061;BME280;59925;52.136;5.420;2023-04-26T01:15:03;102120.69;;;2.05;81.61
72061;BME280;59925;52.136;5.420;2023-04-26T01:17:30;102124.88;;;1.99;82.01
72061;BME280;59925;52.136;5.420;2023-04-26T01:19:57;102124.16;;;1.91;82.06
72061;BME280;59925;52.136;5.420;2023-04-26T01:22:23;102125.06;;;1.83;81.85
72061;BME280;59925;52.136;5.420;2023-04-26T01:24:50;102127.06;;;1.81;82.19
72061;BME280;59925;52.136;5.420;2023-04-26T01:27:16;102128.41;;;1.77;82.44
72061;BME280;59925;52.136;5.420;2023-04-26T01:29:43;102134.22;;;1.72;82.65
72061;BME280;59925;52.136;5.420;2023-04-26T01:32:11;102136.88;;;1.72;82.71
72061;BME280;59925;52.136;5.420;2023-04-26T01:34:37;102127.94;;;1.73;82.61
72061;BME280;59925;52.136;5.420;2023-04-26T01:37:04;102133.22;;;1.73;83.03
72061;BME280;59925;52.136;5.420;2023-04-26T01:39:30;102125.66;;;1.70;82.68
72061;BME280;59925;52.136;5.420;2023-04-26T01:41:56;102134.75;;;1.67;82.43
72061;BME280;59925;52.136;5.420;2023-04-26T01:44:26;102131.28;;;1.67;83.25
72061;BME280;59925;52.136;5.420;2023-04-26T01:46:52;102133.13;;;1.66;83.34
72061;BME280;59925;52.136;5.420;2023-04-26T01:49:19;102127.84;;;1.66;83.48
72061;BME280;59925;52.136;5.420;2023-04-26T01:51:45;102125.38;;;1.65;83.58
72061;BME280;59925;52.136;5.420;2023-04-26T01:54:12;102122.44;;;1.60;83.39
72061;BME280;59925;52.136;5.420;2023-04-26T01:56:38;102124.63;;;1.56;83.64
72061;BME280;59925;52.136;5.420;2023-04-26T01:59:04;102111.28;;;1.49;83.36
72061;BME280;59925;52.136;5.420;2023-04-26T02:01:31;102123.13;;;1.53;83.65
72061;BME280;59925;52.136;5.420;2023-04-26T02:03:58;102113.84;;;1.58;82.85
72061;BME280;59925;52.136;5.420;2023-04-26T02:06:24;102120.59;;;1.60;82.55
72061;BME280;59925;52.136;5.420;2023-04-26T02:08:52;102113.19;;;1.56;82.98
72061;BME280;59925;52.136;5.420;2023-04-26T02:11:19;102124.50;;;1.49;83.02
72061;BME280;59925;52.136;5.420;2023-04-26T02:13:46;102124.38;;;1.43;83.02
72061;BME280;59925;52.136;5.420;2023-04-26T02:16:12;102125.06;;;1.36;83.35
72061;BME280;59925;52.136;5.420;2023-04-26T02:18:41;102131.72;;;1.32;83.45
72061;BME280;59925;52.136;5.420;2023-04-26T02:21:10;102125.94;;;1.29;83.87
72061;BME280;59925;52.136;5.420;2023-04-26T02:23:36;102123.50;;;1.27;84.10
72061;BME280;59925;52.136;5.420;2023-04-26T02:26:03;102124.97;;;1.30;83.88
72061;BME280;59925;52.136;5.420;2023-04-26T02:28:30;102122.63;;;1.35;83.85
72061;BME280;59925;52.136;5.420;2023-04-26T02:30:56;102123.63;;;1.34;83.78
72061;BME280;59925;52.136;5.420;2023-04-26T02:33:23;102128.59;;;1.29;83.44
72061;BME280;59925;52.136;5.420;2023-04-26T02:35:50;102128.00;;;1.18;83.69
72061;BME280;59925;52.136;5.420;2023-04-26T02:38:16;102128.88;;;1.11;83.98
72061;BME280;59925;52.136;5.420;2023-04-26T02:40:43;102135.81;;;1.12;84.17
72061;BME280;59925;52.136;5.420;2023-04-26T02:43:09;102128.41;;;1.07;84.33
72061;BME280;59925;52.136;5.420;2023-04-26T02:45:42;102127.28;;;1.01;84.44
72061;BME280;59925;52.136;5.420;2023-04-26T02:48:08;102119.69;;;0.98;84.43
72061;BME280;59925;52.136;5.420;2023-04-26T02:50:35;102122.03;;;0.93;84.07
72061;BME280;59925;52.136;5.420;2023-04-26T02:53:02;102116.63;;;0.86;84.34
72061;BME280;59925;52.136;5.420;2023-04-26T02:55:28;102129.34;;;0.83;84.51
72061;BME280;59925;52.136;5.420;2023-04-26T02:57:55;102130.72;;;0.79;84.82
72061;BME280;59925;52.136;5.420;2023-04-26T03:00:21;102120.81;;;0.72;84.81
72061;BME280;59925;52.136;5.420;2023-04-26T03:02:48;102128.91;;;0.71;84.68
72061;BME280;59925;52.136;5.420;2023-04-26T03:05:15;102124.78;;;0.68;85.20
72061;BME280;59925;52.136;5.420;2023-04-26T03:07:42;102119.69;;;0.67;85.02
72061;BME280;59925;52.136;5.420;2023-04-26T03:10:08;102118.88;;;0.66;85.17
72061;BME280;59925;52.136;5.420;2023-04-26T03:12:35;102117.69;;;0.69;85.01
72061;BME280;59925;52.136;5.420;2023-04-26T03:15:02;102112.75;;;0.66;85.31
72061;BME280;59925;52.136;5.420;2023-04-26T03:17:29;102112.28;;;0.62;85.25
72061;BME280;59925;52.136;5.420;2023-04-26T03:19:55;102115.44;;;0.57;85.02
72061;BME280;59925;52.136;5.420;2023-04-26T03:22:22;102115.78;;;0.54;85.06
72061;BME280;59925;52.136;5.420;2023-04-26T03:24:48;102106.88;;;0.55;85.55
72061;BME280;59925;52.136;5.420;2023-04-26T03:27:15;102115.44;;;0.57;85.62
72061;BME280;59925;52.136;5.420;2023-04-26T03:29:42;102112.94;;;0.64;85.85
72061;BME280;59925;52.136;5.420;2023-04-26T03:32:09;102108.31;;;0.66;85.83
72061;BME280;59925;52.136;5.420;2023-04-26T03:34:36;102113.28;;;0.61;85.58
72061;BME280;59925;52.136;5.420;2023-04-26T03:37:02;102111.31;;;0.55;85.36
72061;BME280;59925;52.136;5.420;2023-04-26T03:39:29;102106.88;;;0.55;85.55
72061;BME280;59925;52.136;5.420;2023-04-26T03:41:55;102103.72;;;0.60;85.45
72061;BME280;59925;52.136;5.420;2023-04-26T03:44:22;102108.19;;;0.59;85.18
72061;BME280;59925;52.136;5.420;2023-04-26T03:46:48;102097.78;;;0.58;85.26
72061;BME280;59925;52.136;5.420;2023-04-26T03:49:15;102109.97;;;0.59;85.35
72061;BME280;59925;52.136;5.420;2023-04-26T03:51:41;102112.81;;;0.57;85.37
72061;BME280;59925;52.136;5.420;2023-04-26T03:54:07;102108.84;;;0.53;85.55
72061;BME280;59925;52.136;5.420;2023-04-26T03:56:34;102107.22;;;0.52;85.59
72061;BME280;59925;52.136;5.420;2023-04-26T03:59:01;102110.31;;;0.56;85.19
72061;BME280;59925;52.136;5.420;2023-04-26T04:01:28;102115.25;;;0.59;85.63
72061;BME280;59925;52.136;5.420;2023-04-26T04:03:54;102116.56;;;0.63;85.53
72061;BME280;59925;52.136;5.420;2023-04-26T04:06:22;102107.66;;;0.64;85.62
72061;BME280;59925;52.136;5.420;2023-04-26T04:08:48;102106.69;;;0.65;85.36
72061;BME280;59925;52.136;5.420;2023-04-26T04:11:15;102108.47;;;0.65;85.18
72061;BME280;59925;52.136;5.420;2023-04-26T04:13:42;102104.84;;;0.66;85.22
72061;BME280;59925;52.136;5.420;2023-04-26T04:16:08;102111.78;;;0.67;85.09
72061;BME280;59925;52.136;5.420;2023-04-26T04:18:35;102110.13;;;0.66;85.14
72061;BME280;59925;52.136;5.420;2023-04-26T04:21:02;102108.31;;;0.66;85.30
72061;BME280;59925;52.136;5.420;2023-04-26T04:23:29;102104.03;;;0.65;85.34
72061;BME280;59925;52.136;5.420;2023-04-26T04:25:55;102104.50;;;0.69;85.78
72061;BME280;59925;52.136;5.420;2023-04-26T04:28:22;102099.03;;;0.70;85.82
72061;BME280;59925;52.136;5.420;2023-04-26T04:30:49;102097.88;;;0.73;86.30
72061;BME280;59925;52.136;5.420;2023-04-26T04:33:16;102100.03;;;0.78;86.34
72061;BME280;59925;52.136;5.420;2023-04-26T04:35:43;102102.66;;;0.78;86.37
72061;BME280;59925;52.136;5.420;2023-04-26T04:38:10;102100.47;;;0.81;86.36
72061;BME280;59925;52.136;5.420;2023-04-26T04:40:36;102108.88;;;0.85;86.31
72061;BME280;59925;52.136;5.420;2023-04-26T04:43:03;102099.78;;;0.87;86.55
72061;BME280;59925;52.136;5.420;2023-04-26T04:45:29;102100.28;;;0.91;86.21
72061;BME280;59925;52.136;5.420;2023-04-26T04:47:55;102110.31;;;0.96;86.53
72061;BME280;59925;52.136;5.420;2023-04-26T04:50:22;102108.13;;;0.99;86.33
72061;BME280;59925;52.136;5.420;2023-04-26T04:52:49;102106.81;;;1.03;86.21
72061;BME280;59925;52.136;5.420;2023-04-26T04:55:15;102114.66;;;1.12;86.50
72061;BME280;59925;52.136;5.420;2023-04-26T04:57:42;102114.00;;;1.18;86.24
72061;BME280;59925;52.136;5.420;2023-04-26T05:00:09;102113.47;;;1.22;86.47
72061;BME280;59925;52.136;5.420;2023-04-26T05:02:37;102107.84;;;1.26;86.14
72061;BME280;59925;52.136;5.420;2023-04-26T05:05:04;102111.81;;;1.21;85.85
72061;BME280;59925;52.136;5.420;2023-04-26T05:07:31;102116.91;;;1.23;86.02
72061;BME280;59925;52.136;5.420;2023-04-26T05:09:58;102121.19;;;1.24;85.84
72061;BME280;59925;52.136;5.420;2023-04-26T05:12:25;102124.69;;;1.25;85.51
72061;BME280;59925;52.136;5.420;2023-04-26T05:14:52;102118.53;;;1.32;85.61
72061;BME280;59925;52.136;5.420;2023-04-26T05:17:18;102130.00;;;1.40;85.85
72061;BME280;59925;52.136;5.420;2023-04-26T05:19:45;102126.97;;;1.51;85.46
72061;BME280;59925;52.136;5.420;2023-04-26T05:22:12;102132.47;;;1.64;85.69
72061;BME280;59925;52.136;5.420;2023-04-26T05:24:47;102133.53;;;1.78;85.49
72061;BME280;59925;52.136;5.420;2023-04-26T05:27:14;102128.81;;;1.89;85.57
72061;BME280;59925;52.136;5.420;2023-04-26T05:29:41;102135.84;;;1.96;84.87
72061;BME280;59925;52.136;5.420;2023-04-26T05:32:07;102131.13;;;2.07;84.69
72061;BME280;59925;52.136;5.420;2023-04-26T05:34:34;102132.59;;;2.39;85.21
72061;BME280;59925;52.136;5.420;2023-04-26T05:37:01;102133.75;;;3.83;87.31
72061;BME280;59925;52.136;5.420;2023-04-26T05:39:29;102127.31;;;5.39;84.53
72061;BME280;59925;52.136;5.420;2023-04-26T05:41:55;102121.00;;;6.66;80.76
72061;BME280;59925;52.136;5.420;2023-04-26T05:44:22;102117.13;;;7.39;76.81
72061;BME280;59925;52.136;5.420;2023-04-26T05:46:48;102133.81;;;7.85;75.24
72061;BME280;59925;52.136;5.420;2023-04-26T05:49:15;102129.19;;;8.36;72.14
72061;BME280;59925;52.136;5.420;2023-04-26T05:51:41;102125.63;;;8.80;71.37
72061;BME280;59925;52.136;5.420;2023-04-26T05:54:08;102123.28;;;9.56;68.64
72061;BME280;59925;52.136;5.420;2023-04-26T05:56:35;102119.22;;;10.01;66.91
72061;BME280;59925;52.136;5.420;2023-04-26T05:59:01;102118.69;;;10.93;65.15
72061;BME280;59925;52.136;5.420;2023-04-26T06:01:27;102114.84;;;11.52;63.07
72061;BME280;59925;52.136;5.420;2023-04-26T06:03:54;102114.59;;;11.87;61.54
72061;BME280;59925;52.136;5.420;2023-04-26T06:06:25;102117.38;;;11.75;60.34
72061;BME280;59925;52.136;5.420;2023-04-26T06:08:53;102127.47;;;11.51;58.98
72061;BME280;59925;52.136;5.420;2023-04-26T06:11:20;102130.72;;;11.70;59.72
72061;BME280;59925;52.136;5.420;2023-04-26T06:13:47;102132.50;;;12.16;58.59
72061;BME280;59925;52.136;5.420;2023-04-26T06:16:13;102134.06;;;11.43;57.56
72061;BME280;59925;52.136;5.420;2023-04-26T06:18:40;102128.53;;;9.51;59.41
72061;BME280;59925;52.136;5.420;2023-04-26T06:21:07;102129.59;;;8.40;62.72
72061;BME280;59925;52.136;5.420;2023-04-26T06:23:33;102128.34;;;7.73;65.27
72061;BME280;59925;52.136;5.420;2023-04-26T06:26:00;102124.88;;;7.47;66.46
72061;BME280;59925;52.136;5.420;2023-04-26T06:28:26;102139.16;;;7.28;67.82
72061;BME280;59925;52.136;5.420;2023-04-26T06:30:53;102139.81;;;7.16;68.81
72061;BME280;59925;52.136;5.420;2023-04-26T06:33:19;102142.31;;;7.18;69.30
72061;BME280;59925;52.136;5.420;2023-04-26T06:35:45;102145.97;;;7.24;69.57
72061;BME280;59925;52.136;5.420;2023-04-26T06:38:12;102147.22;;;7.21;70.02
72061;BME280;59925;52.136;5.420;2023-04-26T06:40:39;102151.72;;;7.20;70.37
72061;BME280;59925;52.136;5.420;2023-04-26T06:43:05;102154.91;;;7.36;70.45
72061;BME280;59925;52.136;5.420;2023-04-26T06:45:31;102154.22;;;7.47;69.96
72061;BME280;59925;52.136;5.420;2023-04-26T06:47:58;102153.41;;;7.47;69.95
72061;BME280;59925;52.136;5.420;2023-04-26T06:50:29;102161.63;;;7.45;70.21
72061;BME280;59925;52.136;5.420;2023-04-26T06:52:56;102160.53;;;7.53;69.77
72061;BME280;59925;52.136;5.420;2023-04-26T06:55:23;102162.78;;;7.56;69.32
72061;BME280;59925;52.136;5.420;2023-04-26T06:57:50;102162.13;;;7.61;69.33
72061;BME280;59925;52.136;5.420;2023-04-26T07:00:16;102160.34;;;7.80;69.08
72061;BME280;59925;52.136;5.420;2023-04-26T07:02:43;102160.34;;;7.80;68.63
72061;BME280;59925;52.136;5.420;2023-04-26T07:05:10;102162.53;;;7.90;68.72
72061;BME280;59925;52.136;5.420;2023-04-26T07:07:36;102152.81;;;7.95;68.16
72061;BME280;59925;52.136;5.420;2023-04-26T07:10:03;102161.44;;;7.97;67.73
72061;BME280;59925;52.136;5.420;2023-04-26T07:12:30;102160.53;;;8.04;68.33
72061;BME280;59925;52.136;5.420;2023-04-26T07:14:56;102150.16;;;8.14;68.01
72061;BME280;59925;52.136;5.420;2023-04-26T07:17:23;102152.63;;;8.16;67.12
72061;BME280;59925;52.136;5.420;2023-04-26T07:19:50;102150.22;;;8.07;66.23
72061;BME280;59925;52.136;5.420;2023-04-26T07:22:16;102150.28;;;8.01;66.40
72061;BME280;59925;52.136;5.420;2023-04-26T07:24:42;102151.44;;;8.11;66.90
72061;BME280;59925;52.136;5.420;2023-04-26T07:27:09;102144.25;;;8.31;67.18
72061;BME280;59925;52.136;5.420;2023-04-26T07:29:37;102142.00;;;8.53;66.65
72061;BME280;59925;52.136;5.420;2023-04-26T07:32:04;102143.31;;;8.62;66.29
72061;BME280;59925;52.136;5.420;2023-04-26T07:34:31;102143.91;;;8.64;65.91
72061;BME280;59925;52.136;5.420;2023-04-26T07:36:57;102147.56;;;8.51;65.48
72061;BME280;59925;52.136;5.420;2023-04-26T07:39:24;102148.81;;;8.49;65.59
72061;BME280;59925;52.136;5.420;2023-04-26T07:41:50;102148.38;;;8.52;65.15
72061;BME280;59925;52.136;5.420;2023-04-26T07:44:17;102152.84;;;8.58;64.70
72061;BME280;59925;52.136;5.420;2023-04-26T07:46:43;102154.91;;;8.56;64.01
72061;BME280;59925;52.136;5.420;2023-04-26T07:49:10;102157.16;;;8.59;62.85
72061;BME280;59925;52.136;5.420;2023-04-26T07:51:36;102156.06;;;8.41;63.19
72061;BME280;59925;52.136;5.420;2023-04-26T07:54:03;102149.88;;;8.41;63.15
72061;BME280;59925;52.136;5.420;2023-04-26T07:56:29;102155.63;;;8.44;63.06
72061;BME280;59925;52.136;5.420;2023-04-26T07:58:56;102159.66;;;8.54;63.39
72061;BME280;59925;52.136;5.420;2023-04-26T08:01:22;102160.78;;;8.65;63.14
72061;BME280;59925;52.136;5.420;2023-04-26T08:03:49;102165.81;;;8.92;63.63
72061;BME280;59925;52.136;5.420;2023-04-26T08:06:16;102177.38;;;9.04;61.52
72061;BME280;59925;52.136;5.420;2023-04-26T08:08:43;102169.84;;;9.13;62.10
72061;BME280;59925;52.136;5.420;2023-04-26T08:11:16;102173.66;;;9.47;62.24
72061;BME280;59925;52.136;5.420;2023-04-26T08:13:42;102171.94;;;9.53;60.94
72061;BME280;59925;52.136;5.420;2023-04-26T08:16:09;102162.88;;;9.66;60.65
72061;BME280;59925;52.136;5.420;2023-04-26T08:18:36;102161.19;;;9.84;59.93
72061;BME280;59925;52.136;5.420;2023-04-26T08:21:02;102164.66;;;10.08;60.34
72061;BME280;59925;52.136;5.420;2023-04-26T08:23:33;102165.47;;;10.32;60.28
72061;BME280;59925;52.136;5.420;2023-04-26T08:26:01;102161.03;;;10.26;59.06
72061;BME280;59925;52.136;5.420;2023-04-26T08:28:28;102172.38;;;10.16;58.73
72061;BME280;59925;52.136;5.420;2023-04-26T08:30:54;102170.72;;;10.03;58.51
72061;BME280;59925;52.136;5.420;2023-04-26T08:33:21;102170.25;;;9.94;57.91
72061;BME280;59925;52.136;5.420;2023-04-26T08:35:48;102172.59;;;9.91;57.04
72061;BME280;59925;52.136;5.420;2023-04-26T08:38:14;102162.78;;;9.73;56.52
72061;BME280;59925;52.136;5.420;2023-04-26T08:40:42;102155.75;;;9.60;57.30
72061;BME280;59925;52.136;5.420;2023-04-26T08:43:13;102161.69;;;9.50;57.73
72061;BME280;59925;52.136;5.420;2023-04-26T08:45:43;102162.59;;;9.32;57.83
72061;BME280;59925;52.136;5.420;2023-04-26T08:48:11;102164.81;;;9.04;57.93
72061;BME280;59925;52.136;5.420;2023-04-26T08:50:44;102174.41;;;8.94;57.85
72061;BME280;59925;52.136;5.420;2023-04-26T08:53:15;102168.50;;;8.73;58.46
72061;BME280;59925;52.136;5.420;2023-04-26T08:55:47;102164.69;;;8.62;58.46
72061;BME280;59925;52.136;5.420;2023-04-26T08:58:16;102172.16;;;8.60;59.08
72061;BME280;59925;52.136;5.420;2023-04-26T09:00:43;102178.22;;;8.49;59.57
72061;BME280;59925;52.136;5.420;2023-04-26T09:03:11;102175.56;;;8.23;60.41
72061;BME280;59925;52.136;5.420;2023-04-26T09:05:41;102177.47;;;8.16;60.94
72061;BME280;59925;52.136;5.420;2023-04-26T09:08:15;102179.41;;;8.09;61.84
72061;BME280;59925;52.136;5.420;2023-04-26T09:10:42;102169.22;;;7.99;61.79
72061;BME280;59925;52.136;5.420;2023-04-26T09:13:09;102162.59;;;8.02;61.86
72061;BME280;59925;52.136;5.420;2023-04-26T09:15:36;102174.88;;;8.09;61.65
72061;BME280;59925;52.136;5.420;2023-04-26T09:18:20;102161.38;;;8.04;60.72
72061;BME280;59925;52.136;5.420;2023-04-26T09:21:06;102168.78;;;8.02;60.41
72061;BME280;59925;52.136;5.420;2023-04-26T09:23:34;102159.69;;;8.10;61.00
72061;BME280;59925;52.136;5.420;2023-04-26T09:26:20;102165.31;;;8.20;60.36
72061;BME280;59925;52.136;5.420;2023-04-26T09:28:47;102173.94;;;8.22;60.34
72061;BME280;59925;52.136;5.420;2023-04-26T09:31:35;102173.22;;;8.34;59.98
72061;BME280;59925;52.136;5.420;2023-04-26T09:34:02;102162.19;;;8.49;60.71
72061;BME280;59925;52.136;5.420;2023-04-26T09:36:29;102171.59;;;8.70;61.13
72061;BME280;59925;52.136;5.420;2023-04-26T09:38:57;102177.38;;;8.85;60.22
72061;BME280;59925;52.136;5.420;2023-04-26T09:41:40;102173.69;;;8.86;58.92
72061;BME280;59925;52.136;5.420;2023-04-26T09:44:19;102174.41;;;8.94;58.64
72061;BME280;59925;52.136;5.420;2023-04-26T09:46:57;102169.97;;;8.87;58.18
72061;BME280;59925;52.136;5.420;2023-04-26T09:49:25;102174.81;;;9.09;59.05
72061;BME280;59925;52.136;5.420;2023-04-26T09:52:04;102172.91;;;9.28;58.45
72061;BME280;59925;52.136;5.420;2023-04-26T09:54:51;102172.22;;;9.33;57.54
72061;BME280;59925;52.136;5.420;2023-04-26T09:57:18;102174.25;;;9.49;58.65
72061;BME280;59925;52.136;5.420;2023-04-26T09:59:47;102167.09;;;9.74;58.41
72061;BME280;59925;52.136;5.420;2023-04-26T10:02:15;102165.94;;;10.05;58.38
72061;BME280;59925;52.136;5.420;2023-04-26T10:04:47;102162.19;;;10.30;57.12
72061;BME280;59925;52.136;5.420;2023-04-26T10:07:16;102162.53;;;10.34;55.69
72061;BME280;59925;52.136;5.420;2023-04-26T10:09:44;102162.69;;;10.15;54.82
72061;BME280;59925;52.136;5.420;2023-04-26T10:12:13;102156.38;;;10.21;53.61
72061;BME280;59925;52.136;5.420;2023-04-26T10:14:41;102156.84;;;10.30;53.52
72061;BME280;59925;52.136;5.420;2023-04-26T10:17:07;102149.03;;;10.40;53.46
72061;BME280;59925;52.136;5.420;2023-04-26T10:19:35;102157.56;;;10.25;51.24
72061;BME280;59925;52.136;5.420;2023-04-26T10:22:30;102157.22;;;10.22;51.86
72061;BME280;59925;52.136;5.420;2023-04-26T10:24:59;102159.06;;;10.33;52.56
72061;BME280;59925;52.136;5.420;2023-04-26T10:27:46;102161.63;;;10.52;52.56
72061;BME280;59925;52.136;5.420;2023-04-26T10:30:17;102154.97;;;10.54;52.56
72061;BME280;59925;52.136;5.420;2023-04-26T10:35:18;102153.94;;;10.43;52.57
72061;BME280;59925;52.136;5.420;2023-04-26T10:40:39;102159.78;;;10.05;52.20
72061;BME280;59925;52.136;5.420;2023-04-26T10:45:45;102156.75;;;10.13;53.28
72061;BME280;59925;52.136;5.420;2023-04-26T10:53:28;102150.78;;;9.99;53.16
72061;BME280;59925;52.136;5.420;2023-04-26T10:55:55;102160.47;;;10.12;53.04
72061;BME280;59925;52.136;5.420;2023-04-26T10:58:29;102156.88;;;10.18;53.22
72061;BME280;59925;52.136;5.420;2023-04-26T11:01:12;102154.41;;;10.28;53.22
72061;BME280;59925;52.136;5.420;2023-04-26T11:04:05;102148.13;;;10.47;53.12
72061;BME280;59925;52.136;5.420;2023-04-26T11:06:51;102145.25;;;10.65;53.18
72061;BME280;59925;52.136;5.420;2023-04-26T11:09:40;102151.06;;;10.74;52.31
72061;BME280;59925;52.136;5.420;2023-04-26T11:12:11;102149.28;;;10.51;51.98
72061;BME280;59925;52.136;5.420;2023-04-26T11:14:39;102148.00;;;10.41;51.71
72061;BME280;59925;52.136;5.420;2023-04-26T11:17:10;102143.56;;;10.47;52.94
72061;BME280;59925;52.136;5.420;2023-04-26T11:19:37;102148.38;;;10.74;52.10
72061;BME280;59925;52.136;5.420;2023-04-26T11:22:05;102143.19;;;10.96;50.88
72061;BME280;59925;52.136;5.420;2023-04-26T11:24:33;102128.97;;;10.96;50.55
72061;BME280;59925;52.136;5.420;2023-04-26T11:27:08;102131.81;;;11.06;48.82
72061;BME280;59925;52.136;5.420;2023-04-26T11:29:35;102128.56;;;11.04;48.84
72061;BME280;59925;52.136;5.420;2023-04-26T11:32:02;102130.44;;;11.03;49.17
72061;BME280;59925;52.136;5.420;2023-04-26T11:34:36;102129.34;;;11.33;48.29
72061;BME280;59925;52.136;5.420;2023-04-26T11:37:07;102123.41;;;11.65;46.63
72061;BME280;59925;52.136;5.420;2023-04-26T11:39:34;102119.72;;;11.89;47.10
72061;BME280;59925;52.136;5.420;2023-04-26T11:42:05;102117.44;;;12.37;45.66
72061;BME280;59925;52.136;5.420;2023-04-26T11:44:33;102120.16;;;12.20;45.98
72061;BME280;59925;52.136;5.420;2023-04-26T11:47:06;102124.50;;;12.93;46.16
72061;BME280;59925;52.136;5.420;2023-04-26T11:49:35;102122.19;;;13.34;44.05
72061;BME280;59925;52.136;5.420;2023-04-26T11:52:03;102113.22;;;13.51;43.36
72061;BME280;59925;52.136;5.420;2023-04-26T11:54:34;102109.34;;;13.79;44.35
72061;BME280;59925;52.136;5.420;2023-04-26T11:57:15;102116.84;;;14.15;44.91
72061;BME280;59925;52.136;5.420;2023-04-26T11:59:43;102116.38;;;14.28;42.75
72061;BME280;59925;52.136;5.420;2023-04-26T12:02:10;102117.34;;;14.06;42.17
72061;BME280;59925;52.136;5.420;2023-04-26T12:04:37;102120.16;;;13.41;42.21
72061;BME280;59925;52.136;5.420;2023-04-26T12:07:07;102116.78;;;13.01;44.40
72061;BME280;59925;52.136;5.420;2023-04-26T12:09:39;102123.16;;;12.90;45.06
72061;BME280;59925;52.136;5.420;2023-04-26T12:12:06;102127.38;;;12.59;44.88
72061;BME280;59925;52.136;5.420;2023-04-26T12:14:37;102129.69;;;12.27;45.16
72061;BME280;59925;52.136;5.420;2023-04-26T12:17:05;102129.09;;;12.03;45.38
72061;BME280;59925;52.136;5.420;2023-04-26T12:19:33;102122.66;;;11.87;46.26
72061;BME280;59925;52.136;5.420;2023-04-26T12:22:00;102126.91;;;11.66;46.41
72061;BME280;59925;52.136;5.420;2023-04-26T12:24:28;102131.63;;;11.42;46.90
72061;BME280;59925;52.136;5.420;2023-04-26T12:26:59;102135.75;;;11.32;47.58
72061;BME280;59925;52.136;5.420;2023-04-26T12:29:27;102132.38;;;11.37;47.30
72061;BME280;59925;52.136;5.420;2023-04-26T12:31:56;102135.22;;;11.30;47.38
72061;BME280;59925;52.136;5.420;2023-04-26T12:34:24;102137.22;;;11.23;47.75
72061;BME280;59925;52.136;5.420;2023-04-26T12:36:50;102129.41;;;11.22;47.81
72061;BME280;59925;52.136;5.420;2023-04-26T12:39:17;102141.94;;;11.16;48.08
72061;BME280;59925;52.136;5.420;2023-04-26T12:41:44;102135.44;;;11.00;48.18
72061;BME280;59925;52.136;5.420;2023-04-26T12:44:11;102140.88;;;10.88;48.04
72061;BME280;59925;52.136;5.420;2023-04-26T12:46:39;102138.38;;;10.69;48.02
72061;BME280;59925;52.136;5.420;2023-04-26T12:49:06;102146.28;;;10.76;48.94
72061;BME280;59925;52.136;5.420;2023-04-26T12:51:32;102138.06;;;10.95;49.97
72061;BME280;59925;52.136;5.420;2023-04-26T12:53:59;102133.59;;;11.00;49.54
72061;BME280;59925;52.136;5.420;2023-04-26T12:56:28;102127.03;;;11.08;49.44
72061;BME280;59925;52.136;5.420;2023-04-26T12:58:54;102130.22;;;11.22;49.30
72061;BME280;59925;52.136;5.420;2023-04-26T13:01:21;102133.16;;;11.38;48.95
72061;BME280;59925;52.136;5.420;2023-04-26T13:03:47;102132.06;;;11.50;48.88
72061;BME280;59925;52.136;5.420;2023-04-26T13:06:14;102128.13;;;11.58;48.62
72061;BME280;59925;52.136;5.420;2023-04-26T13:08:41;102133.50;;;11.41;48.67
72061;BME280;59925;52.136;5.420;2023-04-26T13:11:07;102134.63;;;11.45;49.02
72061;BME280;59925;52.136;5.420;2023-04-26T13:13:34;102133.44;;;11.53;49.13
72061;BME280;59925;52.136;5.420;2023-04-26T13:16:09;102138.16;;;11.63;49.45